sensor_id;sensor_type;location;lat;lon;timestamp;temperature;humidity
69387;SHT31;56575;48.942;8.404;2023-05-10T00:00:26;13.34;99.99
69387;SHT31;56575;48.942;8.404;2023-05-10T00:02:52;13.31;99.99
69387;SHT31;56575;48.942;8.404;2023-05-10T00:05:17;13.31;99.99
69387;SHT31;56575;48.942;8.404;2023-05-10T00:07:42;13.30;99.99
69387;SHT31;56575;48.942;8.404;2023-05-10T00:10:10;13.27;99.99
69387;SHT31;56575;48.942;8.404;2023-05-10T00:12:35;13.26;99.99
69387;SHT31;56575;48.942;8.404;2023-05-10T00:15:01;13.34;99.99
69387;SHT31;56575;48.942;8.404;2023-05-10T00:17:26;13.36;99.99
69387;SHT31;56575;48.942;8.404;2023-05-10T00:19:52;13.37;99.99
69387;SHT31;56575;48.942;8.404;2023-05-10T00:22:17;13.37;99.99
69387;SHT31;56575;48.942;8.404;2023-05-10T00:24:42;13.43;99.99
69387;SHT31;56575;48.942;8.404;2023-05-10T00:27:08;13.44;99.99
69387;SHT31;56575;48.942;8.404;2023-05-10T00:29:33;13.38;99.99
69387;SHT31;56575;48.942;8.404;2023-05-10T00:31:58;13.40;99.99
69387;SHT31;56575;48.942;8.404;2023-05-10T00:34:24;13.36;99.99
69387;SHT31;56575;48.942;8.404;2023-05-10T00:36:50;13.40;99.99
69387;SHT31;56575;48.942;8.404;2023-05-10T00:39:15;13.40;99.99
69387;SHT31;56575;48.942;8.404;2023-05-10T00:41:40;13.40;99.99
69387;SHT31;56575;48.942;8.404;2023-05-10T00:44:06;13.41;99.99
69387;SHT31;56575;48.942;8.404;2023-05-10T00:46:31;13.44;99.99
69387;SHT31;56575;48.942;8.404;2023-05-10T00:48:57;13.40;99.99
69387;SHT31;56575;48.942;8.404;2023-05-10T00:51:23;13.44;99.99
69387;SHT31;56575;48.942;8.404;2023-05-10T00:53:48;13.43;99.99
69387;SHT31;56575;48.942;8.404;2023-05-10T00:56:15;13.38;99.99
69387;SHT31;56575;48.942;8.404;2023-05-10T00:58:41;13.37;99.99
69387;SHT31;56575;48.942;8.404;2023-05-10T01:01:07;13.36;99.99
69387;SHT31;56575;48.942;8.404;2023-05-10T01:03:34;13.40;99.99
69387;SHT31;56575;48.942;8.404;2023-05-10T01:06:01;13.43;99.99
69387;SHT31;56575;48.942;8.404;2023-05-10T01:08:26;13.37;99.99
69387;SHT31;56575;48.942;8.404;2023-05-10T01:10:52;13.33;99.99
69387;SHT31;56575;48.942;8.404;2023-05-10T01:13:35;13.30;99.99
69387;SHT31;56575;48.942;8.404;2023-05-10T01:16:02;13.31;99.99
69387;SHT31;56575;48.942;8.404;2023-05-10T01:18:29;13.30;99.99
69387;SHT31;56575;48.942;8.404;2023-05-10T01:21:08;13.34;99.99
69387;SHT31;56575;48.942;8.404;2023-05-10T01:23:57;13.38;99.99
69387;SHT31;56575;48.942;8.404;2023-05-10T01:43:21;13.30;99.83
69387;SHT31;56575;48.942;8.404;2023-05-10T01:46:10;13.30;99.70
69387;SHT31;56575;48.942;8.404;2023-05-10T01:48:51;13.30;99.95
69387;SHT31;56575;48.942;8.404;2023-05-10T01:51:22;13.31;99.93
69387;SHT31;56575;48.942;8.404;2023-05-10T01:53:49;13.28;99.61
69387;SHT31;56575;48.942;8.404;2023-05-10T01:56:16;13.31;99.99
69387;SHT31;56575;48.942;8.404;2023-05-10T01:58:45;13.28;99.71
69387;SHT31;56575;48.942;8.404;2023-05-10T02:01:13;13.31;99.79
69387;SHT31;56575;48.942;8.404;2023-05-10T02:03:41;13.33;99.79
69387;SHT31;56575;48.942;8.404;2023-05-10T02:06:08;13.30;99.85
69387;SHT31;56575;48.942;8.404;2023-05-10T02:08:35;13.33;99.99
69387;SHT31;56575;48.942;8.404;2023-05-10T02:11:03;13.34;99.66
69387;SHT31;56575;48.942;8.404;2023-05-10T02:13:29;13.37;99.20
69387;SHT31;56575;48.942;8.404;2023-05-10T02:15:57;13.34;99.55
69387;SHT31;56575;48.942;8.404;2023-05-10T02:18:23;13.33;99.61
69387;SHT31;56575;48.942;8.404;2023-05-10T02:20:50;13.33;99.39
69387;SHT31;56575;48.942;8.404;2023-05-10T02:23:16;13.30;98.91
69387;SHT31;56575;48.942;8.404;2023-05-10T02:25:43;13.33;98.84
69387;SHT31;56575;48.942;8.404;2023-05-10T02:28:11;13.33;98.89
69387;SHT31;56575;48.942;8.404;2023-05-10T02:30:37;13.31;99.35
69387;SHT31;56575;48.942;8.404;2023-05-10T02:33:04;13.30;98.62
69387;SHT31;56575;48.942;8.404;2023-05-10T02:35:30;13.31;99.11
69387;SHT31;56575;48.942;8.404;2023-05-10T02:37:58;13.31;98.79
69387;SHT31;56575;48.942;8.404;2023-05-10T02:40:25;13.30;98.71
69387;SHT31;56575;48.942;8.404;2023-05-10T02:42:52;13.31;98.44
69387;SHT31;56575;48.942;8.404;2023-05-10T02:45:22;13.30;98.85
69387;SHT31;56575;48.942;8.404;2023-05-10T02:47:48;13.33;98.24
69387;SHT31;56575;48.942;8.404;2023-05-10T02:50:14;13.33;98.30
69387;SHT31;56575;48.942;8.404;2023-05-10T02:52:43;13.31;98.57
69387;SHT31;56575;48.942;8.404;2023-05-10T02:55:11;13.30;98.81
69387;SHT31;56575;48.942;8.404;2023-05-10T02:57:43;13.30;98.72
69387;SHT31;56575;48.942;8.404;2023-05-10T03:00:11;13.27;98.99
69387;SHT31;56575;48.942;8.404;2023-05-10T03:02:37;13.28;98.74
69387;SHT31;56575;48.942;8.404;2023-05-10T03:05:02;13.28;99.30
69387;SHT31;56575;48.942;8.404;2023-05-10T03:07:28;13.28;98.92
69387;SHT31;56575;48.942;8.404;2023-05-10T03:09:54;13.24;98.56
69387;SHT31;56575;48.942;8.404;2023-05-10T03:18:10;13.21;98.79
69387;SHT31;56575;48.942;8.404;2023-05-10T03:20:42;13.23;99.07
69387;SHT31;56575;48.942;8.404;2023-05-10T03:25:46;13.20;99.21
69387;SHT31;56575;48.942;8.404;2023-05-10T03:28:14;13.20;98.68
69387;SHT31;56575;48.942;8.404;2023-05-10T03:30:41;13.24;98.57
69387;SHT31;56575;48.942;8.404;2023-05-10T03:33:07;13.23;99.11
69387;SHT31;56575;48.942;8.404;2023-05-10T03:35:33;13.23;99.07
69387;SHT31;56575;48.942;8.404;2023-05-10T03:37:58;13.26;98.67
69387;SHT31;56575;48.942;8.404;2023-05-10T03:40:25;13.26;98.90
69387;SHT31;56575;48.942;8.404;2023-05-10T03:42:51;13.24;98.70
69387;SHT31;56575;48.942;8.404;2023-05-10T03:45:16;13.24;98.54
69387;SHT31;56575;48.942;8.404;2023-05-10T03:47:42;13.27;98.91
69387;SHT31;56575;48.942;8.404;2023-05-10T03:50:07;13.21;98.71
69387;SHT31;56575;48.942;8.404;2023-05-10T03:52:33;13.24;98.68
69387;SHT31;56575;48.942;8.404;2023-05-10T03:54:58;13.27;98.49
69387;SHT31;56575;48.942;8.404;2023-05-10T03:57:23;13.23;98.81
69387;SHT31;56575;48.942;8.404;2023-05-10T03:59:49;13.20;98.23
69387;SHT31;56575;48.942;8.404;2023-05-10T04:02:15;13.20;98.42
69387;SHT31;56575;48.942;8.404;2023-05-10T04:04:40;13.20;98.13
69387;SHT31;56575;48.942;8.404;2023-05-10T04:07:06;13.19;98.05
69387;SHT31;56575;48.942;8.404;2023-05-10T04:09:31;13.20;97.91
69387;SHT31;56575;48.942;8.404;2023-05-10T04:11:59;13.21;98.32
69387;SHT31;56575;48.942;8.404;2023-05-10T04:14:25;13.26;98.77
69387;SHT31;56575;48.942;8.404;2023-05-10T04:16:50;13.23;98.26
69387;SHT31;56575;48.942;8.404;2023-05-10T04:19:15;13.23;98.65
69387;SHT31;56575;48.942;8.404;2023-05-10T04:21:41;13.26;97.64
69387;SHT31;56575;48.942;8.404;2023-05-10T04:24:06;13.26;97.97
69387;SHT31;56575;48.942;8.404;2023-05-10T04:26:32;13.28;98.03
69387;SHT31;56575;48.942;8.404;2023-05-10T04:28:57;13.30;98.11
69387;SHT31;56575;48.942;8.404;2023-05-10T04:31:22;13.31;97.63
69387;SHT31;56575;48.942;8.404;2023-05-10T04:33:48;13.30;97.61
69387;SHT31;56575;48.942;8.404;2023-05-10T04:36:13;13.31;97.29
69387;SHT31;56575;48.942;8.404;2023-05-10T04:38:38;13.36;97.46
69387;SHT31;56575;48.942;8.404;2023-05-10T04:41:05;13.36;97.39
69387;SHT31;56575;48.942;8.404;2023-05-10T04:43:31;13.37;97.48
69387;SHT31;56575;48.942;8.404;2023-05-10T04:45:56;13.37;97.85
69387;SHT31;56575;48.942;8.404;2023-05-10T04:48:22;13.38;97.08
69387;SHT31;56575;48.942;8.404;2023-05-10T04:50:47;13.36;97.17
69387;SHT31;56575;48.942;8.404;2023-05-10T04:53:13;13.40;97.17
69387;SHT31;56575;48.942;8.404;2023-05-10T04:55:38;13.41;97.29
69387;SHT31;56575;48.942;8.404;2023-05-10T04:58:03;13.40;96.51
69387;SHT31;56575;48.942;8.404;2023-05-10T05:00:29;13.38;97.68
69387;SHT31;56575;48.942;8.404;2023-05-10T05:02:55;13.40;96.83
69387;SHT31;56575;48.942;8.404;2023-05-10T05:05:20;13.43;98.03
69387;SHT31;56575;48.942;8.404;2023-05-10T05:07:45;13.46;97.47
69387;SHT31;56575;48.942;8.404;2023-05-10T05:10:11;13.43;97.66
69387;SHT31;56575;48.942;8.404;2023-05-10T05:12:36;13.44;97.76
69387;SHT31;56575;48.942;8.404;2023-05-10T05:15:02;13.47;97.80
69387;SHT31;56575;48.942;8.404;2023-05-10T05:17:30;13.48;98.13
69387;SHT31;56575;48.942;8.404;2023-05-10T05:19:55;13.50;98.07
69387;SHT31;56575;48.942;8.404;2023-05-10T05:22:21;13.50;97.85
69387;SHT31;56575;48.942;8.404;2023-05-10T05:24:53;13.55;98.68
69387;SHT31;56575;48.942;8.404;2023-05-10T05:27:18;13.58;97.53
69387;SHT31;56575;48.942;8.404;2023-05-10T05:29:46;13.62;97.58
69387;SHT31;56575;48.942;8.404;2023-05-10T05:32:11;13.65;96.89
69387;SHT31;56575;48.942;8.404;2023-05-10T05:34:36;13.68;97.11
69387;SHT31;56575;48.942;8.404;2023-05-10T05:37:02;13.71;97.21
69387;SHT31;56575;48.942;8.404;2023-05-10T05:39:27;13.72;97.07
69387;SHT31;56575;48.942;8.404;2023-05-10T05:41:52;13.76;97.15
69387;SHT31;56575;48.942;8.404;2023-05-10T05:44:18;13.78;97.05
69387;SHT31;56575;48.942;8.404;2023-05-10T05:46:43;13.78;95.87
69387;SHT31;56575;48.942;8.404;2023-05-10T05:49:08;13.82;96.73
69387;SHT31;56575;48.942;8.404;2023-05-10T05:51:35;13.76;95.61
69387;SHT31;56575;48.942;8.404;2023-05-10T05:54:00;13.79;95.62
69387;SHT31;56575;48.942;8.404;2023-05-10T05:56:26;13.81;96.02
69387;SHT31;56575;48.942;8.404;2023-05-10T05:58:51;13.85;96.50
69387;SHT31;56575;48.942;8.404;2023-05-10T06:01:16;13.85;95.44
69387;SHT31;56575;48.942;8.404;2023-05-10T06:03:42;13.85;95.94
69387;SHT31;56575;48.942;8.404;2023-05-10T06:06:07;13.87;96.34
69387;SHT31;56575;48.942;8.404;2023-05-10T06:08:33;13.89;96.11
69387;SHT31;56575;48.942;8.404;2023-05-10T06:10:59;13.95;95.88
69387;SHT31;56575;48.942;8.404;2023-05-10T06:13:25;13.93;95.57
69387;SHT31;56575;48.942;8.404;2023-05-10T06:15:53;13.96;96.39
69387;SHT31;56575;48.942;8.404;2023-05-10T06:18:19;14.05;95.89
69387;SHT31;56575;48.942;8.404;2023-05-10T06:20:44;14.09;96.51
69387;SHT31;56575;48.942;8.404;2023-05-10T06:23:09;14.10;95.76
69387;SHT31;56575;48.942;8.404;2023-05-10T06:25:35;14.12;95.38
69387;SHT31;56575;48.942;8.404;2023-05-10T06:28:00;14.12;95.41
69387;SHT31;56575;48.942;8.404;2023-05-10T06:30:26;14.17;95.75
69387;SHT31;56575;48.942;8.404;2023-05-10T06:32:53;14.24;96.33
69387;SHT31;56575;48.942;8.404;2023-05-10T06:35:19;14.20;94.45
69387;SHT31;56575;48.942;8.404;2023-05-10T06:37:44;14.19;94.32
69387;SHT31;56575;48.942;8.404;2023-05-10T06:40:10;14.16;93.53
69387;SHT31;56575;48.942;8.404;2023-05-10T06:42:36;14.19;93.67
69387;SHT31;56575;48.942;8.404;2023-05-10T06:45:01;14.23;93.44
69387;SHT31;56575;48.942;8.404;2023-05-10T06:47:27;14.20;93.27
69387;SHT31;56575;48.942;8.404;2023-05-10T06:49:52;14.26;93.40
69387;SHT31;56575;48.942;8.404;2023-05-10T06:52:18;14.29;93.26
69387;SHT31;56575;48.942;8.404;2023-05-10T06:54:43;14.38;92.71
69387;SHT31;56575;48.942;8.404;2023-05-10T06:57:09;14.42;91.92
69387;SHT31;56575;48.942;8.404;2023-05-10T06:59:34;14.45;92.49
69387;SHT31;56575;48.942;8.404;2023-05-10T07:02:01;14.51;92.17
69387;SHT31;56575;48.942;8.404;2023-05-10T07:04:27;14.52;91.57
69387;SHT31;56575;48.942;8.404;2023-05-10T07:06:52;14.54;91.07
69387;SHT31;56575;48.942;8.404;2023-05-10T07:09:18;14.58;90.63
69387;SHT31;56575;48.942;8.404;2023-05-10T07:11:43;14.69;90.71
69387;SHT31;56575;48.942;8.404;2023-05-10T07:14:09;14.69;89.73
69387;SHT31;56575;48.942;8.404;2023-05-10T07:16:34;14.72;89.51
69387;SHT31;56575;48.942;8.404;2023-05-10T07:19:00;14.71;88.13
69387;SHT31;56575;48.942;8.404;2023-05-10T07:21:25;14.71;89.07
69387;SHT31;56575;48.942;8.404;2023-05-10T07:23:53;14.63;87.39
69387;SHT31;56575;48.942;8.404;2023-05-10T07:26:19;14.67;87.83
69387;SHT31;56575;48.942;8.404;2023-05-10T07:28:44;14.74;87.70
69387;SHT31;56575;48.942;8.404;2023-05-10T07:31:09;14.71;86.21
69387;SHT31;56575;48.942;8.404;2023-05-10T07:33:35;14.65;86.68
69387;SHT31;56575;48.942;8.404;2023-05-10T07:36:01;14.63;87.75
69387;SHT31;56575;48.942;8.404;2023-05-10T07:38:26;14.65;87.23
69387;SHT31;56575;48.942;8.404;2023-05-10T07:40:51;14.61;87.60
69387;SHT31;56575;48.942;8.404;2023-05-10T07:43:17;14.56;87.74
69387;SHT31;56575;48.942;8.404;2023-05-10T07:45:42;14.67;87.78
69387;SHT31;56575;48.942;8.404;2023-05-10T07:48:08;14.64;87.12
69387;SHT31;56575;48.942;8.404;2023-05-10T07:50:33;14.72;86.81
69387;SHT31;56575;48.942;8.404;2023-05-10T07:52:59;14.72;86.80
69387;SHT31;56575;48.942;8.404;2023-05-10T07:55:24;14.79;86.55
69387;SHT31;56575;48.942;8.404;2023-05-10T07:57:50;14.84;86.40
69387;SHT31;56575;48.942;8.404;2023-05-10T08:00:17;14.86;85.86
69387;SHT31;56575;48.942;8.404;2023-05-10T08:02:43;14.95;85.21
69387;SHT31;56575;48.942;8.404;2023-05-10T08:05:08;15.00;84.44
69387;SHT31;56575;48.942;8.404;2023-05-10T08:07:34;15.14;85.28
69387;SHT31;56575;48.942;8.404;2023-05-10T08:10:00;15.24;84.01
69387;SHT31;56575;48.942;8.404;2023-05-10T08:12:26;15.13;82.37
69387;SHT31;56575;48.942;8.404;2023-05-10T08:14:51;15.07;82.20
69387;SHT31;56575;48.942;8.404;2023-05-10T08:17:16;15.02;81.66
69387;SHT31;56575;48.942;8.404;2023-05-10T08:19:42;15.07;82.20
69387;SHT31;56575;48.942;8.404;2023-05-10T08:22:07;15.06;83.14
69387;SHT31;56575;48.942;8.404;2023-05-10T08:24:32;15.14;82.57
69387;SHT31;56575;48.942;8.404;2023-05-10T08:26:59;15.39;82.26
69387;SHT31;56575;48.942;8.404;2023-05-10T08:29:25;15.40;80.64
69387;SHT31;56575;48.942;8.404;2023-05-10T08:31:51;15.27;80.61
69387;SHT31;56575;48.942;8.404;2023-05-10T08:34:16;15.29;80.90
69387;SHT31;56575;48.942;8.404;2023-05-10T08:36:42;15.34;79.88
69387;SHT31;56575;48.942;8.404;2023-05-10T08:39:07;15.40;79.71
69387;SHT31;56575;48.942;8.404;2023-05-10T08:41:33;15.43;79.33
69387;SHT31;56575;48.942;8.404;2023-05-10T08:44:03;15.51;79.73
69387;SHT31;56575;48.942;8.404;2023-05-10T08:46:30;15.67;79.35
69387;SHT31;56575;48.942;8.404;2023-05-10T08:49:01;15.82;78.69
69387;SHT31;56575;48.942;8.404;2023-05-10T08:51:27;15.91;77.85
69387;SHT31;56575;48.942;8.404;2023-05-10T08:53:56;15.95;78.36
69387;SHT31;56575;48.942;8.404;2023-05-10T08:56:21;16.05;77.49
69387;SHT31;56575;48.942;8.404;2023-05-10T08:58:47;16.29;76.94
69387;SHT31;56575;48.942;8.404;2023-05-10T09:01:15;16.29;76.52
69387;SHT31;56575;48.942;8.404;2023-05-10T09:03:41;16.21;76.94
69387;SHT31;56575;48.942;8.404;2023-05-10T09:06:07;15.93;76.95
69387;SHT31;56575;48.942;8.404;2023-05-10T09:08:33;15.91;77.62
69387;SHT31;56575;48.942;8.404;2023-05-10T09:11:00;15.92;77.38
69387;SHT31;56575;48.942;8.404;2023-05-10T09:13:26;15.68;77.23
69387;SHT31;56575;48.942;8.404;2023-05-10T09:15:52;15.71;78.49
69387;SHT31;56575;48.942;8.404;2023-05-10T09:18:18;15.92;78.41
69387;SHT31;56575;48.942;8.404;2023-05-10T09:20:43;15.85;77.66
69387;SHT31;56575;48.942;8.404;2023-05-10T09:23:09;15.79;78.74
69387;SHT31;56575;48.942;8.404;2023-05-10T09:25:35;15.55;78.82
69387;SHT31;56575;48.942;8.404;2023-05-10T09:28:01;15.07;78.32
69387;SHT31;56575;48.942;8.404;2023-05-10T09:30:28;14.89;83.58
69387;SHT31;56575;48.942;8.404;2023-05-10T09:32:55;14.67;83.32
69387;SHT31;56575;48.942;8.404;2023-05-10T09:35:23;14.41;84.18
69387;SHT31;56575;48.942;8.404;2023-05-10T09:37:53;14.67;85.93
69387;SHT31;56575;48.942;8.404;2023-05-10T09:40:24;14.69;85.11
69387;SHT31;56575;48.942;8.404;2023-05-10T09:45:18;15.06;85.32
69387;SHT31;56575;48.942;8.404;2023-05-10T09:47:44;15.22;85.42
69387;SHT31;56575;48.942;8.404;2023-05-10T09:50:10;15.48;87.85
69387;SHT31;56575;48.942;8.404;2023-05-10T09:52:54;15.74;84.41
69387;SHT31;56575;48.942;8.404;2023-05-10T09:55:23;16.01;85.29
69387;SHT31;56575;48.942;8.404;2023-05-10T09:57:49;16.02;84.62
69387;SHT31;56575;48.942;8.404;2023-05-10T10:00:23;15.69;83.66
69387;SHT31;56575;48.942;8.404;2023-05-10T10:02:55;15.53;83.13
69387;SHT31;56575;48.942;8.404;2023-05-10T10:05:28;15.54;84.46
69387;SHT31;56575;48.942;8.404;2023-05-10T10:07:53;15.75;84.17
69387;SHT31;56575;48.942;8.404;2023-05-10T10:10:19;15.88;82.38
69387;SHT31;56575;48.942;8.404;2023-05-10T10:12:44;15.93;80.59
69387;SHT31;56575;48.942;8.404;2023-05-10T10:15:10;16.16;80.73
69387;SHT31;56575;48.942;8.404;2023-05-10T10:17:36;16.02;77.88
69387;SHT31;56575;48.942;8.404;2023-05-10T10:20:03;16.30;75.78
69387;SHT31;56575;48.942;8.404;2023-05-10T10:22:29;16.54;75.98
69387;SHT31;56575;48.942;8.404;2023-05-10T10:24:54;16.67;72.92
69387;SHT31;56575;48.942;8.404;2023-05-10T10:27:26;16.69;68.93
69387;SHT31;56575;48.942;8.404;2023-05-10T10:30:09;17.06;68.61
69387;SHT31;56575;48.942;8.404;2023-05-10T10:35:45;17.53;67.31
69387;SHT31;56575;48.942;8.404;2023-05-10T10:38:12;17.02;68.06
69387;SHT31;56575;48.942;8.404;2023-05-10T10:40:38;16.34;70.62
69387;SHT31;56575;48.942;8.404;2023-05-10T10:46:15;16.27;70.60
69387;SHT31;56575;48.942;8.404;2023-05-10T10:48:48;15.93;72.51
69387;SHT31;56575;48.942;8.404;2023-05-10T10:51:14;15.92;73.44
69387;SHT31;56575;48.942;8.404;2023-05-10T10:53:40;15.85;72.17
69387;SHT31;56575;48.942;8.404;2023-05-10T10:56:11;15.85;72.68
69387;SHT31;56575;48.942;8.404;2023-05-10T10:58:38;15.81;71.71
69387;SHT31;56575;48.942;8.404;2023-05-10T11:01:11;15.93;70.62
69387;SHT31;56575;48.942;8.404;2023-05-10T11:03:37;15.99;70.95
69387;SHT31;56575;48.942;8.404;2023-05-10T11:06:02;16.01;71.41
69387;SHT31;56575;48.942;8.404;2023-05-10T11:08:32;16.13;70.74
69387;SHT31;56575;48.942;8.404;2023-05-10T11:13:41;16.20;69.11
69387;SHT31;56575;48.942;8.404;2023-05-10T11:19:03;16.36;70.62
69387;SHT31;56575;48.942;8.404;2023-05-10T11:21:29;16.30;69.50
69387;SHT31;56575;48.942;8.404;2023-05-10T11:23:57;16.23;69.38
69387;SHT31;56575;48.942;8.404;2023-05-10T11:26:31;16.37;69.66
69387;SHT31;56575;48.942;8.404;2023-05-10T11:28:57;16.36;68.61
69387;SHT31;56575;48.942;8.404;2023-05-10T11:31:25;16.64;68.39
69387;SHT31;56575;48.942;8.404;2023-05-10T11:33:55;16.93;68.47
69387;SHT31;56575;48.942;8.404;2023-05-10T11:36:42;17.01;68.55
69387;SHT31;56575;48.942;8.404;2023-05-10T11:39:07;16.93;68.30
69387;SHT31;56575;48.942;8.404;2023-05-10T11:41:33;16.84;68.60
69387;SHT31;56575;48.942;8.404;2023-05-10T11:43:58;16.68;69.22
69387;SHT31;56575;48.942;8.404;2023-05-10T11:46:26;16.74;68.87
69387;SHT31;56575;48.942;8.404;2023-05-10T11:48:58;16.81;67.76
69387;SHT31;56575;48.942;8.404;2023-05-10T11:51:26;16.91;66.43
69387;SHT31;56575;48.942;8.404;2023-05-10T11:53:53;16.75;66.10
69387;SHT31;56575;48.942;8.404;2023-05-10T11:56:19;16.67;64.98
69387;SHT31;56575;48.942;8.404;2023-05-10T11:58:51;17.19;64.22
69387;SHT31;56575;48.942;8.404;2023-05-10T12:01:16;17.81;58.43
69387;SHT31;56575;48.942;8.404;2023-05-10T12:03:42;18.13;56.52
69387;SHT31;56575;48.942;8.404;2023-05-10T12:06:07;18.01;57.01
69387;SHT31;56575;48.942;8.404;2023-05-10T12:08:33;18.26;58.38
69387;SHT31;56575;48.942;8.404;2023-05-10T12:11:06;18.25;57.50
69387;SHT31;56575;48.942;8.404;2023-05-10T12:13:37;18.37;58.12
69387;SHT31;56575;48.942;8.404;2023-05-10T12:16:18;18.43;57.31
69387;SHT31;56575;48.942;8.404;2023-05-10T12:18:45;18.50;56.29
69387;SHT31;56575;48.942;8.404;2023-05-10T12:21:11;18.47;57.66
69387;SHT31;56575;48.942;8.404;2023-05-10T12:23:37;18.47;56.85
69387;SHT31;56575;48.942;8.404;2023-05-10T12:26:03;18.50;57.32
69387;SHT31;56575;48.942;8.404;2023-05-10T12:28:30;18.78;56.32
69387;SHT31;56575;48.942;8.404;2023-05-10T12:30:58;18.76;53.37
69387;SHT31;56575;48.942;8.404;2023-05-10T12:33:24;18.44;52.05
69387;SHT31;56575;48.942;8.404;2023-05-10T12:35:53;18.40;52.93
69387;SHT31;56575;48.942;8.404;2023-05-10T12:38:25;18.14;53.21
69387;SHT31;56575;48.942;8.404;2023-05-10T12:40:50;18.22;54.03
69387;SHT31;56575;48.942;8.404;2023-05-10T12:43:16;18.34;54.25
69387;SHT31;56575;48.942;8.404;2023-05-10T12:45:41;18.08;55.65
69387;SHT31;56575;48.942;8.404;2023-05-10T12:48:07;18.09;56.32
69387;SHT31;56575;48.942;8.404;2023-05-10T12:50:32;18.32;55.77
69387;SHT31;56575;48.942;8.404;2023-05-10T12:52:57;18.41;55.29
69387;SHT31;56575;48.942;8.404;2023-05-10T12:55:23;18.33;56.19
69387;SHT31;56575;48.942;8.404;2023-05-10T12:57:48;18.34;55.14
69387;SHT31;56575;48.942;8.404;2023-05-10T13:00:14;18.30;55.57
69387;SHT31;56575;48.942;8.404;2023-05-10T13:02:40;18.26;56.37
69387;SHT31;56575;48.942;8.404;2023-05-10T13:05:05;18.36;54.86
69387;SHT31;56575;48.942;8.404;2023-05-10T13:07:31;18.74;54.20
69387;SHT31;56575;48.942;8.404;2023-05-10T13:09:56;18.95;53.81
69387;SHT31;56575;48.942;8.404;2023-05-10T13:12:22;19.01;53.89
69387;SHT31;56575;48.942;8.404;2023-05-10T13:14:47;18.91;54.03
69387;SHT31;56575;48.942;8.404;2023-05-10T13:17:12;18.99;54.53
69387;SHT31;56575;48.942;8.404;2023-05-10T13:19:38;18.96;53.25
69387;SHT31;56575;48.942;8.404;2023-05-10T13:22:03;18.63;53.57
69387;SHT31;56575;48.942;8.404;2023-05-10T13:24:29;18.84;52.26
69387;SHT31;56575;48.942;8.404;2023-05-10T13:26:54;18.47;52.71
69387;SHT31;56575;48.942;8.404;2023-05-10T13:29:20;18.29;52.54
69387;SHT31;56575;48.942;8.404;2023-05-10T13:31:46;18.60;53.18
69387;SHT31;56575;48.942;8.404;2023-05-10T13:34:11;18.30;52.87
69387;SHT31;56575;48.942;8.404;2023-05-10T13:36:36;18.58;52.15
69387;SHT31;56575;48.942;8.404;2023-05-10T13:39:02;18.57;52.40
69387;SHT31;56575;48.942;8.404;2023-05-10T13:41:28;18.48;52.80
69387;SHT31;56575;48.942;8.404;2023-05-10T13:43:53;18.50;53.38
69387;SHT31;56575;48.942;8.404;2023-05-10T13:46:19;18.53;53.20
69387;SHT31;56575;48.942;8.404;2023-05-10T13:48:44;18.65;53.98
69387;SHT31;56575;48.942;8.404;2023-05-10T13:51:10;18.50;53.03
69387;SHT31;56575;48.942;8.404;2023-05-10T13:53:35;18.50;53.90
69387;SHT31;56575;48.942;8.404;2023-05-10T13:56:01;18.13;53.56
69387;SHT31;56575;48.942;8.404;2023-05-10T13:58:28;18.16;54.82
69387;SHT31;56575;48.942;8.404;2023-05-10T14:00:53;18.08;55.57
69387;SHT31;56575;48.942;8.404;2023-05-10T14:03:18;17.91;55.89
69387;SHT31;56575;48.942;8.404;2023-05-10T14:05:44;17.75;56.48
69387;SHT31;56575;48.942;8.404;2023-05-10T14:08:10;17.74;57.36
69387;SHT31;56575;48.942;8.404;2023-05-10T14:10:36;17.58;56.17
69387;SHT31;56575;48.942;8.404;2023-05-10T14:13:02;17.44;56.77
69387;SHT31;56575;48.942;8.404;2023-05-10T14:15:28;17.31;56.95
69387;SHT31;56575;48.942;8.404;2023-05-10T14:17:53;17.22;57.64
69387;SHT31;56575;48.942;8.404;2023-05-10T14:20:19;17.22;58.21
69387;SHT31;56575;48.942;8.404;2023-05-10T14:22:44;17.30;58.39
69387;SHT31;56575;48.942;8.404;2023-05-10T14:25:10;17.39;59.28
69387;SHT31;56575;48.942;8.404;2023-05-10T14:27:35;17.64;58.59
69387;SHT31;56575;48.942;8.404;2023-05-10T14:30:01;17.91;56.44
69387;SHT31;56575;48.942;8.404;2023-05-10T14:32:27;18.44;56.34
69387;SHT31;56575;48.942;8.404;2023-05-10T14:34:53;18.95;53.68
69387;SHT31;56575;48.942;8.404;2023-05-10T14:37:18;19.36;54.12
69387;SHT31;56575;48.942;8.404;2023-05-10T14:39:44;19.31;53.76
69387;SHT31;56575;48.942;8.404;2023-05-10T14:42:09;19.40;54.27
69387;SHT31;56575;48.942;8.404;2023-05-10T14:44:34;19.60;54.82
69387;SHT31;56575;48.942;8.404;2023-05-10T14:47:00;19.36;52.21
69387;SHT31;56575;48.942;8.404;2023-05-10T14:49:25;19.27;52.89
69387;SHT31;56575;48.942;8.404;2023-05-10T14:51:51;19.36;52.77
69387;SHT31;56575;48.942;8.404;2023-05-10T14:54:17;19.05;52.24
69387;SHT31;56575;48.942;8.404;2023-05-10T14:56:42;18.88;52.45
69387;SHT31;56575;48.942;8.404;2023-05-10T14:59:08;18.88;54.31
69387;SHT31;56575;48.942;8.404;2023-05-10T15:01:33;18.79;52.63
69387;SHT31;56575;48.942;8.404;2023-05-10T15:04:02;18.87;51.67
69387;SHT31;56575;48.942;8.404;2023-05-10T15:06:32;18.65;50.97
69387;SHT31;56575;48.942;8.404;2023-05-10T15:08:59;18.57;52.33
69387;SHT31;56575;48.942;8.404;2023-05-10T15:11:24;18.50;53.40
69387;SHT31;56575;48.942;8.404;2023-05-10T15:13:50;18.41;54.36
69387;SHT31;56575;48.942;8.404;2023-05-10T15:16:15;18.30;54.96
69387;SHT31;56575;48.942;8.404;2023-05-10T15:18:41;18.26;55.81
69387;SHT31;56575;48.942;8.404;2023-05-10T15:21:06;17.91;54.75
69387;SHT31;56575;48.942;8.404;2023-05-10T15:23:31;17.70;56.47
69387;SHT31;56575;48.942;8.404;2023-05-10T15:25:57;17.78;57.43
69387;SHT31;56575;48.942;8.404;2023-05-10T15:28:22;17.93;58.35
69387;SHT31;56575;48.942;8.404;2023-05-10T15:30:48;17.70;56.77
69387;SHT31;56575;48.942;8.404;2023-05-10T15:33:14;17.68;57.31
69387;SHT31;56575;48.942;8.404;2023-05-10T15:35:39;17.55;58.05
69387;SHT31;56575;48.942;8.404;2023-05-10T15:38:05;17.44;58.40
69387;SHT31;56575;48.942;8.404;2023-05-10T15:40:31;17.37;59.32
69387;SHT31;56575;48.942;8.404;2023-05-10T15:42:56;17.09;61.42
69387;SHT31;56575;48.942;8.404;2023-05-10T15:45:21;17.10;63.72
69387;SHT31;56575;48.942;8.404;2023-05-10T15:47:47;16.81;65.94
69387;SHT31;56575;48.942;8.404;2023-05-10T15:50:14;16.63;66.91
69387;SHT31;56575;48.942;8.404;2023-05-10T15:52:40;16.46;66.92
69387;SHT31;56575;48.942;8.404;2023-05-10T15:55:07;16.60;69.07
69387;SHT31;56575;48.942;8.404;2023-05-10T15:57:42;16.79;68.86
69387;SHT31;56575;48.942;8.404;2023-05-10T16:00:09;17.09;68.52
69387;SHT31;56575;48.942;8.404;2023-05-10T16:02:34;17.36;64.45
69387;SHT31;56575;48.942;8.404;2023-05-10T16:05:00;17.65;63.87